createdAt,value
2023-04-03T00:01:26.689Z,11.83
2023-04-03T00:03:53.322Z,11.68
2023-04-03T00:06:19.905Z,11.59
2023-04-03T00:08:46.475Z,11.61
2023-04-03T00:11:13.039Z,11.48
2023-04-03T00:13:39.599Z,11.37
2023-04-03T00:16:06.163Z,11.14
2023-04-03T00:18:32.856Z,10.87
2023-04-03T00:20:59.507Z,10.52
2023-04-03T00:23:26.065Z,10.63
2023-04-03T00:25:52.635Z,10.65
2023-04-03T00:28:19.194Z,10.84
2023-04-03T00:30:46.027Z,10.76
2023-04-03T00:33:12.635Z,10.82
2023-04-03T00:35:39.320Z,10.74
2023-04-03T00:38:05.954Z,10.50
2023-04-03T00:40:32.506Z,10.35
2023-04-03T00:42:59.077Z,9.83
2023-04-03T00:45:25.703Z,9.53
2023-04-03T00:47:52.413Z,9.64
2023-04-03T00:50:19.027Z,10.00
2023-04-03T00:52:45.590Z,9.89
2023-04-03T00:55:12.184Z,9.94
2023-04-03T00:57:38.752Z,9.86
2023-04-03T01:00:05.541Z,9.85
2023-04-03T01:02:32.156Z,9.65
2023-04-03T01:05:00.052Z,9.59
2023-04-03T01:07:26.706Z,9.34
2023-04-03T01:09:53.286Z,9.47
2023-04-03T01:12:19.812Z,9.43
2023-04-03T01:14:46.416Z,9.48
2023-04-03T01:17:12.970Z,9.63
2023-04-03T01:19:39.529Z,9.51
2023-04-03T01:22:06.234Z,9.72
2023-04-03T01:24:32.821Z,9.87
2023-04-03T01:27:00.411Z,9.93
2023-04-03T01:29:26.988Z,9.66
2023-04-03T01:31:53.707Z,9.75
2023-04-03T01:34:20.377Z,9.91
2023-04-03T01:36:46.934Z,9.97
2023-04-03T01:39:13.607Z,10.00
2023-04-03T01:41:40.200Z,9.67
2023-04-03T01:44:06.757Z,9.82
2023-04-03T01:46:33.318Z,9.81
2023-04-03T01:48:59.958Z,9.96
2023-04-03T01:51:26.555Z,9.66
2023-04-03T01:53:53.127Z,9.89
2023-04-03T01:56:19.672Z,9.69
2023-04-03T01:58:46.274Z,9.55
2023-04-03T02:01:12.903Z,9.92
2023-04-03T02:03:39.532Z,10.07
2023-04-03T02:06:06.149Z,10.36
2023-04-03T02:08:32.724Z,10.36
2023-04-03T02:10:59.330Z,9.99
2023-04-03T02:13:25.874Z,10.16
2023-04-03T02:15:52.417Z,10.35
2023-04-03T02:18:19.011Z,10.26
2023-04-03T02:20:45.551Z,10.41
2023-04-03T02:23:12.182Z,10.37
2023-04-03T02:25:39.113Z,10.44
2023-04-03T02:28:05.845Z,10.34
2023-04-03T02:30:32.870Z,10.26
2023-04-03T02:32:59.546Z,10.40
2023-04-03T02:35:26.210Z,10.49
2023-04-03T02:37:52.803Z,10.36
2023-04-03T02:40:19.383Z,10.22
2023-04-03T02:42:46.015Z,10.00
2023-04-03T02:45:12.599Z,10.34
2023-04-03T02:47:39.257Z,10.48
2023-04-03T02:50:05.860Z,10.56
2023-04-03T02:52:32.451Z,10.71
2023-04-03T02:54:58.999Z,10.43
2023-04-03T02:57:25.689Z,10.60
2023-04-03T02:59:52.333Z,10.73
2023-04-03T03:02:18.901Z,10.80
2023-04-03T03:04:45.459Z,10.82
2023-04-03T03:07:12.055Z,10.92
2023-04-03T03:09:38.625Z,10.93
2023-04-03T03:12:05.245Z,11.02
2023-04-03T03:14:31.883Z,10.97
2023-04-03T03:16:58.418Z,10.93
2023-04-03T03:19:24.946Z,10.82
2023-04-03T03:21:51.525Z,10.76
2023-04-03T03:24:18.101Z,10.87
2023-04-03T03:26:44.673Z,11.02
2023-04-03T03:29:11.318Z,11.12
2023-04-03T03:31:37.927Z,11.02
2023-04-03T03:34:04.543Z,11.08
2023-04-03T03:36:31.142Z,11.10
2023-04-03T03:38:57.721Z,10.69
2023-04-03T03:41:24.285Z,10.77
2023-04-03T03:43:50.855Z,10.93
2023-04-03T03:46:17.411Z,10.96
2023-04-03T03:48:43.985Z,10.94
2023-04-03T03:51:10.549Z,11.06
2023-04-03T03:53:37.129Z,11.14
2023-04-03T03:56:03.952Z,11.12
2023-04-03T03:58:30.547Z,11.11
2023-04-03T04:00:57.130Z,11.13
2023-04-03T04:03:23.761Z,11.23
2023-04-03T04:05:50.402Z,10.96
2023-04-03T04:08:17.042Z,10.59
2023-04-03T04:10:43.602Z,10.59
2023-04-03T04:13:10.184Z,10.90
2023-04-03T04:15:36.981Z,10.81
2023-04-03T04:18:03.779Z,11.01
2023-04-03T04:20:30.331Z,11.09
2023-04-03T04:22:56.886Z,11.21
2023-04-03T04:25:23.442Z,11.04
2023-04-03T04:27:50.130Z,10.92
2023-04-03T04:30:16.689Z,10.90
2023-04-03T04:32:43.276Z,11.03
2023-04-03T04:35:09.880Z,10.96
2023-04-03T04:37:36.457Z,10.78
2023-04-03T04:40:03.019Z,10.43
2023-04-03T04:42:29.595Z,10.72
2023-04-03T04:44:56.144Z,10.43
2023-04-03T04:47:22.716Z,10.56
2023-04-03T04:49:49.305Z,10.92
2023-04-03T04:52:15.888Z,10.75
2023-04-03T04:54:42.451Z,10.97
2023-04-03T04:57:09.066Z,10.79
2023-04-03T04:59:35.729Z,11.01
2023-04-03T05:02:02.348Z,10.98
2023-04-03T05:04:29.008Z,11.12
2023-04-03T05:06:55.638Z,11.18
2023-04-03T05:09:22.184Z,10.92
2023-04-03T05:11:48.753Z,10.93
2023-04-03T05:14:15.388Z,10.82
2023-04-03T05:16:41.966Z,10.83
2023-04-03T05:19:08.570Z,10.89
2023-04-03T05:21:35.105Z,10.69
2023-04-03T05:24:01.655Z,10.71
2023-04-03T05:26:28.235Z,10.42
2023-04-03T05:28:54.838Z,10.59
2023-04-03T05:31:21.466Z,10.80
2023-04-03T05:33:48.037Z,10.56
2023-04-03T05:36:14.712Z,10.67
2023-04-03T05:38:41.386Z,10.75
2023-04-03T05:41:07.966Z,10.81
2023-04-03T05:43:34.567Z,10.92
2023-04-03T05:46:01.281Z,11.15
2023-04-03T05:48:27.910Z,11.26
2023-04-03T05:50:56.947Z,10.95
2023-04-03T05:53:23.750Z,11.15
2023-04-03T05:55:50.340Z,11.16
2023-04-03T05:58:16.911Z,11.37
2023-04-03T06:00:43.478Z,11.11
2023-04-03T06:03:10.170Z,11.29
2023-04-03T06:05:37.064Z,11.64
2023-04-03T06:08:03.897Z,11.90
2023-04-03T06:10:30.448Z,12.05
2023-04-03T06:12:57.073Z,11.95
2023-04-03T06:15:23.693Z,11.61
2023-04-03T06:17:50.363Z,11.63
2023-04-03T06:20:19.265Z,11.72
2023-04-03T06:22:45.838Z,11.88
2023-04-03T06:25:12.397Z,11.78
2023-04-03T06:27:39.292Z,11.66
2023-04-03T06:30:05.935Z,11.88
2023-04-03T06:32:32.573Z,11.94
2023-04-03T06:34:59.339Z,11.85
2023-04-03T06:37:25.905Z,12.32
2023-04-03T06:39:52.507Z,12.21
2023-04-03T06:42:19.045Z,11.71
2023-04-03T06:44:45.644Z,12.02
2023-04-03T06:47:12.186Z,12.13
2023-04-03T06:49:38.788Z,11.71
2023-04-03T06:52:05.410Z,11.52
2023-04-03T06:54:31.956Z,11.45
2023-04-03T06:56:58.578Z,11.21
2023-04-03T06:59:25.161Z,11.40
2023-04-03T07:01:51.913Z,11.33
2023-04-03T07:04:18.579Z,11.45
2023-04-03T07:06:47.629Z,11.37
2023-04-03T07:09:14.346Z,11.40
2023-04-03T07:11:41.019Z,11.24
2023-04-03T07:14:07.576Z,11.41
2023-04-03T07:16:34.220Z,11.59
2023-04-03T07:19:00.838Z,11.35
2023-04-03T07:21:27.445Z,11.23
2023-04-03T07:23:54.058Z,11.20
2023-04-03T07:26:20.603Z,11.00
2023-04-03T07:28:47.325Z,11.24
2023-04-03T07:31:13.946Z,11.21
2023-04-03T07:33:40.540Z,11.35
2023-04-03T07:36:07.173Z,11.49
2023-04-03T07:38:33.824Z,11.91
2023-04-03T07:41:00.534Z,11.88
2023-04-03T07:43:27.088Z,11.71
2023-04-03T07:45:53.703Z,11.75
2023-04-03T07:48:20.269Z,11.89
2023-04-03T07:50:46.820Z,11.92
2023-04-03T07:53:13.402Z,11.59
2023-04-03T07:55:40.138Z,11.78
2023-04-03T07:58:07.088Z,11.82
2023-04-03T08:00:33.673Z,11.96
2023-04-03T08:03:00.332Z,12.13
2023-04-03T08:05:27.004Z,11.38
2023-04-03T08:07:53.604Z,10.71
2023-04-03T08:10:20.151Z,10.93
2023-04-03T08:12:46.749Z,11.45
2023-04-03T08:15:13.336Z,11.62
2023-04-03T08:17:40.035Z,11.87
2023-04-03T08:20:06.617Z,12.27
2023-04-03T08:22:33.204Z,12.52
2023-04-03T08:24:59.905Z,12.62
2023-04-03T08:27:29.581Z,12.90
2023-04-03T08:29:56.173Z,12.94
2023-04-03T08:32:22.731Z,13.16
2023-04-03T08:34:49.340Z,12.80
2023-04-03T08:37:16.134Z,12.85
2023-04-03T08:39:42.765Z,13.10
2023-04-03T08:42:09.318Z,13.18
2023-04-03T08:44:35.929Z,12.88
2023-04-03T08:47:02.513Z,12.81
2023-04-03T08:49:29.240Z,12.98
2023-04-03T08:51:55.814Z,12.15
2023-04-03T08:54:22.398Z,12.55
2023-04-03T08:56:48.982Z,12.13
2023-04-03T08:59:15.555Z,11.65
2023-04-03T09:01:42.278Z,11.99
2023-04-03T09:04:08.952Z,11.88
2023-04-03T09:06:35.617Z,12.18
2023-04-03T09:09:02.179Z,12.52
2023-04-03T09:11:28.727Z,12.58
2023-04-03T09:13:55.291Z,11.75
2023-04-03T09:16:21.902Z,12.13
2023-04-03T09:18:48.514Z,12.32
2023-04-03T09:21:16.110Z,12.15
2023-04-03T09:23:42.686Z,11.96
2023-04-03T09:26:09.266Z,11.72
2023-04-03T09:28:42.871Z,12.14
2023-04-03T09:31:13.732Z,12.17
2023-04-03T09:33:40.321Z,11.97
2023-04-03T09:36:06.898Z,11.85
2023-04-03T09:38:33.486Z,11.98
2023-04-03T09:41:00.027Z,11.82
2023-04-03T09:43:26.631Z,12.47
2023-04-03T09:45:53.193Z,13.01
2023-04-03T09:48:19.835Z,12.62
2023-04-03T09:50:46.534Z,12.83
2023-04-03T09:53:13.149Z,13.12
2023-04-03T09:55:39.701Z,12.05
2023-04-03T09:58:06.313Z,12.44
2023-04-03T10:00:32.865Z,12.58
2023-04-03T10:02:59.481Z,12.18
2023-04-03T10:05:26.286Z,12.52
2023-04-03T10:08:01.673Z,12.56
2023-04-03T10:10:30.378Z,14.02
2023-04-03T10:12:56.944Z,14.66
2023-04-03T10:15:23.623Z,14.74
2023-04-03T10:17:50.227Z,14.47
2023-04-03T10:20:16.897Z,14.13
2023-04-03T10:22:43.788Z,13.98
2023-04-03T10:25:10.423Z,14.05
2023-04-03T10:27:36.975Z,14.05
2023-04-03T10:30:03.730Z,14.12
2023-04-03T10:32:30.339Z,14.18
2023-04-03T10:35:04.647Z,14.29
2023-04-03T10:37:31.854Z,13.69
2023-04-03T10:39:58.407Z,13.57
2023-04-03T10:42:25.004Z,13.86
2023-04-03T10:44:51.560Z,13.60
2023-04-03T10:47:18.185Z,13.47
2023-04-03T10:49:50.064Z,13.74
2023-04-03T10:52:23.963Z,14.17
2023-04-03T10:54:50.617Z,13.22
2023-04-03T10:57:17.275Z,13.75
2023-04-03T10:59:43.858Z,14.09
2023-04-03T11:02:10.450Z,13.36
2023-04-03T11:04:37.016Z,12.85
2023-04-03T11:07:03.916Z,12.85
2023-04-03T11:09:30.626Z,12.55
2023-04-03T11:11:57.218Z,13.30
2023-04-03T11:14:23.809Z,13.71
2023-04-03T11:16:54.332Z,14.04
2023-04-03T11:19:21.231Z,13.42
2023-04-03T11:21:47.892Z,14.36
2023-04-03T11:24:14.445Z,14.41
2023-04-03T11:26:41.000Z,14.12
2023-04-03T11:29:07.608Z,14.25
2023-04-03T11:31:34.216Z,14.45
2023-04-03T11:34:00.782Z,14.61
2023-04-03T11:36:30.096Z,14.49
2023-04-03T11:39:01.103Z,14.52
2023-04-03T11:41:27.944Z,15.62
2023-04-03T11:43:54.582Z,16.01
2023-04-03T11:46:21.208Z,15.63
2023-04-03T11:48:47.815Z,15.45
2023-04-03T11:51:14.539Z,15.34
2023-04-03T11:53:41.129Z,16.05
2023-04-03T11:56:07.740Z,16.88
2023-04-03T11:58:34.305Z,16.91
2023-04-03T12:01:00.839Z,16.94
2023-04-03T12:03:27.657Z,16.13
2023-04-03T12:05:54.324Z,15.47
2023-04-03T12:08:20.930Z,15.23
2023-04-03T12:10:47.516Z,14.68
2023-04-03T12:13:14.137Z,13.58
2023-04-03T12:15:40.776Z,13.15
2023-04-03T12:18:07.503Z,13.49
2023-04-03T12:20:34.195Z,13.96
2023-04-03T12:23:00.773Z,13.26
2023-04-03T12:25:27.362Z,13.54
2023-04-03T12:27:54.044Z,14.52
2023-04-03T12:30:20.661Z,15.08
2023-04-03T12:32:47.298Z,14.96
2023-04-03T12:35:13.892Z,15.42
2023-04-03T12:37:40.489Z,15.78
2023-04-03T12:40:07.094Z,16.83
2023-04-03T12:42:33.742Z,17.35
2023-04-03T12:45:00.491Z,17.50
2023-04-03T12:47:27.209Z,17.13
2023-04-03T12:49:53.777Z,17.41
2023-04-03T12:52:20.360Z,17.43
2023-04-03T12:54:46.937Z,16.59
2023-04-03T12:57:13.591Z,16.76
2023-04-03T12:59:40.235Z,15.71
2023-04-03T13:02:06.867Z,16.20
2023-04-03T13:04:33.428Z,17.51
2023-04-03T13:06:59.988Z,17.54
2023-04-03T13:09:26.550Z,16.81
2023-04-03T13:11:53.104Z,16.88
2023-04-03T13:14:19.667Z,16.66
2023-04-03T13:16:46.252Z,15.13
2023-04-03T13:19:12.810Z,14.49
2023-04-03T13:21:39.454Z,14.90
2023-04-03T13:24:14.960Z,15.35
2023-04-03T13:26:42.186Z,15.65
2023-04-03T13:29:11.042Z,15.69
2023-04-03T13:31:44.460Z,15.86
2023-04-03T13:34:11.051Z,15.53
2023-04-03T13:36:37.791Z,15.55
2023-04-03T13:39:04.381Z,14.84
2023-04-03T13:41:30.975Z,15.57
2023-04-03T13:44:03.356Z,16.75
2023-04-03T13:46:33.266Z,16.79
2023-04-03T13:48:59.866Z,16.31
2023-04-03T13:51:26.517Z,16.47
2023-04-03T13:53:53.946Z,16.32
2023-04-03T13:56:20.525Z,16.14
2023-04-03T13:58:47.095Z,15.96
2023-04-03T14:01:13.762Z,15.27
2023-04-03T14:03:40.332Z,15.72
2023-04-03T14:06:06.971Z,16.30
2023-04-03T14:08:42.182Z,16.02
2023-04-03T14:11:09.873Z,15.61
2023-04-03T14:13:36.438Z,16.13
2023-04-03T14:16:15.113Z,16.51
2023-04-03T14:18:42.378Z,16.73
2023-04-03T14:21:09.300Z,16.77
2023-04-03T14:23:35.847Z,16.91
2023-04-03T14:26:02.432Z,16.29
2023-04-03T14:28:29.003Z,15.51
2023-04-03T14:30:55.673Z,15.60
2023-04-03T14:33:22.297Z,15.73
2023-04-03T14:35:48.877Z,15.74
2023-04-03T14:38:15.462Z,16.27
2023-04-03T14:40:42.042Z,16.33
2023-04-03T14:43:08.609Z,15.94
2023-04-03T14:45:35.166Z,16.10
2023-04-03T14:48:01.824Z,15.43
2023-04-03T14:50:28.428Z,15.57
2023-04-03T14:52:55.022Z,15.80
2023-04-03T14:55:21.613Z,15.87
2023-04-03T14:57:48.201Z,16.15
2023-04-03T15:00:14.729Z,16.03
2023-04-03T15:02:41.526Z,15.82
2023-04-03T15:05:08.527Z,16.35
2023-04-03T15:07:35.091Z,15.30
2023-04-03T15:10:01.675Z,15.10
2023-04-03T15:12:28.223Z,15.52
2023-04-03T15:15:01.122Z,15.18
2023-04-03T15:17:29.518Z,15.87
2023-04-03T15:19:56.124Z,15.40
2023-04-03T15:22:22.888Z,15.06
2023-04-03T15:24:49.445Z,15.39
2023-04-03T15:27:16.025Z,15.13
2023-04-03T15:29:42.579Z,15.53
2023-04-03T15:32:09.256Z,14.63
2023-04-03T15:34:35.861Z,14.48
2023-04-03T15:37:02.409Z,14.31
2023-04-03T15:39:29.022Z,13.36
2023-04-03T15:41:55.615Z,13.81
2023-04-03T15:44:22.177Z,13.66
2023-04-03T15:46:48.776Z,13.68
2023-04-03T15:49:15.364Z,13.78
2023-04-03T15:51:42.005Z,13.92
2023-04-03T15:54:08.586Z,14.24
2023-04-03T15:56:35.104Z,14.01
2023-04-03T15:59:02.020Z,13.68
2023-04-03T16:01:28.644Z,14.33
2023-04-03T16:03:55.243Z,14.57
2023-04-03T16:06:21.821Z,14.76
2023-04-03T16:08:48.794Z,14.61
2023-04-03T16:11:15.407Z,13.90
2023-04-03T16:13:41.993Z,13.72
2023-04-03T16:16:08.605Z,13.26
2023-04-03T16:18:35.921Z,13.43
2023-04-03T16:21:02.605Z,13.19
2023-04-03T16:23:29.225Z,13.32
2023-04-03T16:25:55.825Z,12.90
2023-04-03T16:28:22.412Z,12.94
2023-04-03T16:30:48.996Z,12.28
2023-04-03T16:33:15.574Z,12.04
2023-04-03T16:35:42.184Z,11.93
2023-04-03T16:38:08.744Z,11.33
2023-04-03T16:40:35.329Z,11.29
2023-04-03T16:43:01.899Z,11.76
2023-04-03T16:45:28.448Z,11.79
2023-04-03T16:47:55.042Z,11.44
2023-04-03T16:50:21.732Z,11.36
2023-04-03T16:52:48.317Z,11.84
2023-04-03T16:55:14.897Z,11.69
2023-04-03T16:57:41.439Z,11.07
2023-04-03T17:00:08.033Z,10.79
2023-04-03T17:02:34.676Z,10.80
2023-04-03T17:05:01.565Z,10.91
2023-04-03T17:07:28.118Z,10.79
2023-04-03T17:09:54.821Z,10.50
2023-04-03T17:12:21.403Z,10.50
2023-04-03T17:14:47.997Z,10.70
2023-04-03T17:17:14.554Z,11.02
2023-04-03T17:19:41.101Z,10.42
2023-04-03T17:22:07.692Z,10.24
2023-04-03T17:24:34.267Z,10.37
2023-04-03T17:27:00.820Z,10.14
2023-04-03T17:29:27.374Z,9.97
2023-04-03T17:31:53.955Z,10.05
2023-04-03T17:34:20.550Z,9.65
2023-04-03T17:36:47.137Z,9.30
2023-04-03T17:39:13.725Z,9.79
2023-04-03T17:41:40.302Z,10.17
2023-04-03T17:44:06.874Z,10.03
2023-04-03T17:46:34.820Z,10.29
2023-04-03T17:49:02.028Z,10.22
2023-04-03T17:51:28.655Z,10.39
2023-04-03T17:53:55.219Z,10.11
2023-04-03T17:56:21.870Z,10.33
2023-04-03T17:58:48.442Z,10.20
2023-04-03T18:01:15.139Z,9.94
2023-04-03T18:03:41.792Z,9.61
2023-04-03T18:06:08.454Z,9.35
2023-04-03T18:08:35.084Z,9.18
2023-04-03T18:11:01.673Z,8.69
2023-04-03T18:13:28.388Z,8.74
2023-04-03T18:15:55.078Z,9.25
2023-04-03T18:18:21.715Z,9.66
2023-04-03T18:20:48.309Z,9.48
2023-04-03T18:23:14.881Z,9.42
2023-04-03T18:25:41.470Z,9.50
2023-04-03T18:28:08.067Z,8.93
2023-04-03T18:30:34.627Z,8.54
2023-04-03T18:33:01.243Z,8.62
2023-04-03T18:35:27.878Z,8.98
2023-04-03T18:37:54.427Z,8.95
2023-04-03T18:40:20.992Z,8.79
2023-04-03T18:42:47.584Z,8.80
2023-04-03T18:45:14.139Z,9.02
2023-04-03T18:47:40.829Z,9.25
2023-04-03T18:50:07.428Z,9.28
2023-04-03T18:52:34.049Z,9.14
2023-04-03T18:55:00.602Z,9.16
2023-04-03T18:57:27.224Z,8.63
2023-04-03T18:59:53.836Z,9.05
2023-04-03T19:02:20.391Z,9.21
2023-04-03T19:04:47.883Z,9.21
2023-04-03T19:07:14.670Z,8.99
2023-04-03T19:09:41.216Z,8.99
2023-04-03T19:12:07.823Z,9.01
2023-04-03T19:14:34.395Z,8.87
2023-04-03T19:17:00.963Z,8.62
2023-04-03T19:19:27.538Z,8.97
2023-04-03T19:21:54.091Z,9.18
2023-04-03T19:24:20.650Z,9.08
2023-04-03T19:26:47.381Z,9.22
2023-04-03T19:29:13.950Z,9.35
2023-04-03T19:31:40.569Z,9.19
2023-04-03T19:34:07.136Z,8.98
2023-04-03T19:36:33.844Z,9.16
2023-04-03T19:39:00.468Z,9.09
2023-04-03T19:41:27.017Z,8.41
2023-04-03T19:43:53.578Z,8.49
2023-04-03T19:46:20.166Z,8.23
2023-04-03T19:48:46.761Z,8.46
2023-04-03T19:51:13.358Z,8.67
2023-04-03T19:53:39.929Z,8.18
2023-04-03T19:56:06.467Z,8.31
2023-04-03T19:58:33.092Z,8.34
2023-04-03T20:00:59.737Z,8.35
2023-04-03T20:03:26.295Z,8.19
2023-04-03T20:05:52.986Z,8.51
2023-04-03T20:08:19.580Z,8.60
2023-04-03T20:10:46.172Z,8.27
2023-04-03T20:13:12.761Z,8.42
2023-04-03T20:15:39.326Z,8.52
2023-04-03T20:18:05.972Z,8.66
2023-04-03T20:20:32.571Z,8.66
2023-04-03T20:22:59.123Z,8.59
2023-04-03T20:27:56.044Z,8.67
2023-04-03T20:30:22.688Z,8.67
2023-04-03T20:32:49.386Z,8.59
2023-04-03T20:35:15.976Z,8.59
2023-04-03T20:37:42.523Z,8.43
2023-04-03T20:40:09.087Z,8.26
2023-04-03T20:42:35.645Z,8.31
2023-04-03T20:45:02.230Z,8.33
2023-04-03T20:47:28.849Z,8.15
2023-04-03T20:49:55.421Z,8.03
2023-04-03T20:52:21.979Z,8.03
2023-04-03T20:54:48.616Z,7.87
2023-04-03T20:57:15.209Z,7.80
2023-04-03T20:59:41.760Z,8.02
2023-04-03T21:02:08.329Z,8.22
2023-04-03T21:04:34.868Z,8.10
2023-04-03T21:07:01.427Z,8.23
2023-04-03T21:09:28.055Z,8.25
2023-04-03T21:11:54.587Z,8.33
2023-04-03T21:14:21.145Z,8.30
2023-04-03T21:16:49.093Z,8.39
2023-04-03T21:19:15.738Z,8.34
2023-04-03T21:21:42.412Z,8.38
2023-04-03T21:24:09.112Z,8.36
2023-04-03T21:26:35.694Z,8.05
2023-04-03T21:29:02.260Z,7.97
2023-04-03T21:31:28.904Z,8.14
2023-04-03T21:33:55.463Z,8.25
2023-04-03T21:36:22.042Z,8.33
2023-04-03T21:38:48.634Z,8.26
2023-04-03T21:41:15.186Z,8.04
2023-04-03T21:43:41.971Z,8.26
2023-04-03T21:46:08.569Z,8.17
2023-04-03T21:48:35.161Z,8.12
2023-04-03T21:51:01.741Z,7.77
2023-04-03T21:53:28.311Z,7.57
2023-04-03T21:55:54.905Z,7.80
2023-04-03T21:58:21.485Z,7.89
2023-04-03T22:00:48.127Z,8.06
2023-04-03T22:03:14.741Z,8.12
2023-04-03T22:05:41.317Z,8.19
2023-04-03T22:08:07.930Z,7.94
2023-04-03T22:10:34.471Z,7.85
2023-04-03T22:13:01.054Z,7.56
2023-04-03T22:15:27.597Z,7.53
2023-04-03T22:17:54.187Z,7.73
2023-04-03T22:20:20.762Z,7.80
2023-04-03T22:22:47.313Z,7.92
2023-04-03T22:25:13.883Z,7.91
2023-04-03T22:27:40.526Z,7.53
2023-04-03T22:30:07.100Z,7.77
2023-04-03T22:32:33.671Z,7.38
2023-04-03T22:35:00.579Z,7.11
2023-04-03T22:37:27.139Z,7.29
2023-04-03T22:39:53.711Z,7.17
2023-04-03T22:42:20.268Z,7.40
2023-04-03T22:44:46.850Z,7.00
2023-04-03T22:47:13.452Z,6.88
2023-04-03T22:49:40.034Z,6.92
2023-04-03T22:52:06.657Z,7.19
2023-04-03T22:54:33.219Z,7.22
2023-04-03T22:56:59.885Z,6.66
2023-04-03T22:59:26.562Z,6.70
2023-04-03T23:01:53.152Z,6.59
2023-04-03T23:04:19.704Z,6.93
2023-04-03T23:06:46.313Z,6.51
2023-04-03T23:09:12.881Z,6.63
2023-04-03T23:11:39.423Z,6.91
2023-04-03T23:14:06.018Z,6.92
2023-04-03T23:16:32.612Z,7.15
2023-04-03T23:18:59.217Z,7.23
2023-04-03T23:21:25.799Z,6.87
2023-04-03T23:23:52.405Z,6.89
2023-04-03T23:26:18.978Z,7.08
2023-04-03T23:28:45.589Z,7.02
2023-04-03T23:31:12.196Z,6.84
2023-04-03T23:33:39.096Z,6.91
2023-04-03T23:36:05.791Z,6.41
2023-04-03T23:38:32.386Z,6.23
2023-04-03T23:40:58.993Z,6.48
2023-04-03T23:43:25.560Z,6.82
2023-04-03T23:45:52.136Z,6.53
2023-04-03T23:48:18.697Z,6.39
2023-04-03T23:50:45.251Z,6.71
2023-04-03T23:53:11.799Z,6.82
2023-04-03T23:55:38.365Z,6.90
2023-04-03T23:58:06.996Z,6.96
